Terminal Aerodrome Forecast
Issued by NWS Wilmington, NC

Home | Current Version | Previous Version | Text Only | Print | Product List | Glossary On
Versions: 1 2 3 4 5 6 7 8 9 10 11 12 13 14
000
FTUS42 KILM 041733
TAFLBT
TAF
KLBT 041733Z 0418/0518 02005KT P6SM VCSH BKN060
     FM050200 06006KT P6SM SCT060 SCT120 BKN250
     FM050600 05004KT 5SM BR SCT025 SCT080
      TEMPO 0510/0514 BKN005
     FM051400 04010KT P6SM BKN015=

USA.gov is the U.S. government's official web portal to all federal, state and local government web resources and services.